createdAt,value
2023-03-29T14:01:07.475Z,1498.6154
2023-03-29T14:02:08.663Z,1689.2307
2023-03-29T14:03:09.833Z,2204.6155
2023-03-29T14:04:11.093Z,2209.9231
2023-03-29T14:05:12.318Z,1876.6154
2023-03-29T14:06:13.546Z,1380.7693
2023-03-29T14:07:14.812Z,1239.4615
2023-03-29T14:08:19.401Z,1146.0000
2023-03-29T14:09:20.931Z,1116.9231
2023-03-29T14:10:22.423Z,1129.0000
2023-03-29T14:11:24.481Z,1242.8462
2023-03-29T14:12:25.653Z,1246.2307
2023-03-29T14:13:27.036Z,1190.7693
2023-03-29T14:14:28.553Z,1211.0000
2023-03-29T14:15:30.049Z,1188.4615
2023-03-29T14:16:31.815Z,1137.4615
2023-03-29T14:17:33.133Z,1095.7693
2023-03-29T14:18:34.802Z,1111.6154
2023-03-29T14:19:36.128Z,1172.4615
2023-03-29T14:21:58.808Z,1157.4615
2023-03-29T14:23:00.047Z,1110.1538
2023-03-29T14:24:01.282Z,1082.3077
2023-03-29T14:25:02.477Z,1062.6923
2023-03-29T14:26:03.972Z,1120.0769
2023-03-29T14:27:04.989Z,1129.4615
2023-03-29T14:28:06.234Z,1110.8462
2023-03-29T14:29:07.445Z,1108.3846
2023-03-29T14:30:07.600Z,1105.6666
2023-03-29T14:32:04.573Z,1117.0000
2023-03-29T14:33:05.787Z,1084.4615
2023-03-29T14:34:06.958Z,1051.3846
2023-03-29T14:35:10.401Z,1045.2307
2023-03-29T14:36:12.064Z,1043.7693
2023-03-29T14:37:13.475Z,1049.4615
2023-03-29T14:38:14.927Z,1056.5385
2023-03-29T14:39:17.847Z,1062.3846
2023-03-29T14:40:19.120Z,1067.7693
2023-03-29T14:41:21.998Z,1097.3077
2023-03-29T14:42:21.575Z,1124.0769
2023-03-29T14:43:22.746Z,1134.3077
2023-03-29T14:44:24.076Z,1161.6923
2023-03-29T14:45:25.566Z,1127.5385
2023-03-29T14:46:27.197Z,1112.4615
2023-03-29T14:47:28.650Z,1123.7693
2023-03-29T14:48:30.137Z,1117.6154
2023-03-29T14:49:31.702Z,1072.2307
2023-03-29T14:50:33.196Z,1054.2307
2023-03-29T14:51:34.694Z,1030.3077
2023-03-29T14:52:36.239Z,950.6923
2023-03-29T14:53:37.762Z,910.5385
2023-03-29T14:54:39.242Z,896.9231
2023-03-29T14:55:40.799Z,884.3077
2023-03-29T14:56:42.308Z,877.6154
2023-03-29T14:57:43.852Z,868.3077
2023-03-29T14:58:45.316Z,835.3077
2023-03-29T14:59:46.854Z,850.5385
2023-03-29T15:00:48.399Z,893.1539
2023-03-29T15:01:50.010Z,956.3846
2023-03-29T15:02:51.536Z,993.9231
2023-03-29T15:03:54.712Z,950.0000
2023-03-29T15:04:54.461Z,915.9231
2023-03-29T15:05:56.003Z,877.2308
2023-03-29T15:06:57.510Z,859.5385
2023-03-29T15:07:59.025Z,848.0000
2023-03-29T15:09:06.161Z,837.1539
2023-03-29T15:10:04.418Z,833.3077
2023-03-29T15:11:05.694Z,832.3077
2023-03-29T15:12:06.925Z,833.1539
2023-03-29T15:13:08.181Z,828.7692
2023-03-29T15:14:09.433Z,823.6923
2023-03-29T15:15:10.629Z,823.2308
2023-03-29T15:16:12.075Z,834.0769
2023-03-29T15:17:13.122Z,877.9231
2023-03-29T15:18:14.441Z,880.0000
2023-03-29T15:19:15.725Z,921.0769
2023-03-29T15:20:17.260Z,926.3077
2023-03-29T15:21:18.794Z,895.3846
2023-03-29T15:22:20.275Z,858.0000
2023-03-29T15:23:21.854Z,839.6923
2023-03-29T15:24:23.368Z,828.9231
2023-03-29T15:25:24.877Z,816.9231
2023-03-29T15:26:26.394Z,813.3077
2023-03-29T15:27:27.928Z,809.0769
2023-03-29T15:28:29.487Z,808.1539
2023-03-29T15:29:30.936Z,807.4615
2023-03-29T15:30:33.982Z,802.7692
2023-03-29T15:31:35.245Z,799.8461
2023-03-29T15:32:36.465Z,800.0769
2023-03-29T15:33:37.922Z,820.8461
2023-03-29T15:34:38.930Z,870.0769
2023-03-29T15:35:40.160Z,902.6154
2023-03-29T15:36:41.703Z,895.9231
2023-03-29T15:37:43.136Z,878.7692
2023-03-29T15:38:45.508Z,851.3077
2023-03-29T15:39:46.180Z,823.2308
2023-03-29T15:40:47.763Z,806.1539
2023-03-29T15:41:49.287Z,796.4615
2023-03-29T15:42:50.760Z,790.1539
2023-03-29T15:43:52.268Z,788.7692
2023-03-29T15:44:53.809Z,784.6923
2023-03-29T15:45:55.330Z,783.6923
2023-03-29T15:46:56.875Z,782.3846
2023-03-29T15:47:59.735Z,781.6923
2023-03-29T15:49:01.015Z,780.5385
2023-03-29T15:50:02.198Z,782.5385
2023-03-29T15:51:06.534Z,804.3077
2023-03-29T15:52:04.677Z,849.9231
2023-03-29T15:53:15.149Z,909.6154
2023-03-29T15:54:07.584Z,871.7692
2023-03-29T15:55:08.998Z,852.0769
2023-03-29T15:56:10.562Z,830.1539
2023-03-29T15:57:12.482Z,797.6923
2023-03-29T15:58:13.665Z,784.7692
2023-03-29T15:59:18.129Z,776.0769
2023-03-29T16:00:19.350Z,774.6923
2023-03-29T16:01:20.574Z,774.4615
2023-03-29T16:02:21.854Z,773.6154
2023-03-29T16:03:23.089Z,774.3077
2023-03-29T16:04:24.291Z,772.6154
2023-03-29T16:05:25.546Z,772.6923
2023-03-29T16:06:26.786Z,770.2308
2023-03-29T16:07:27.980Z,773.9231
2023-03-29T16:08:29.232Z,795.5385
2023-03-29T16:09:30.554Z,860.8461
2023-03-29T16:10:31.798Z,854.8461
2023-03-29T16:11:33.332Z,863.4615
2023-03-29T16:12:34.830Z,848.2308
2023-03-29T16:13:36.509Z,804.3846
2023-03-29T16:14:37.928Z,781.6923
2023-03-29T16:15:39.421Z,770.2308
2023-03-29T16:16:40.969Z,763.6923
2023-03-29T16:17:42.511Z,760.6154
2023-03-29T16:18:43.943Z,760.5385
2023-03-29T16:19:45.542Z,760.2308
2023-03-29T16:20:46.991Z,757.0000
2023-03-29T16:21:48.558Z,752.2308
2023-03-29T16:22:50.031Z,753.4615
2023-03-29T16:23:51.580Z,753.9231
2023-03-29T16:24:53.141Z,770.4615
2023-03-29T16:25:54.633Z,831.3077
2023-03-29T16:26:56.486Z,862.2308
2023-03-29T16:27:57.671Z,873.6154
2023-03-29T16:28:59.165Z,890.3846
2023-03-29T16:30:00.736Z,861.3846
2023-03-29T16:31:02.212Z,814.3846
2023-03-29T16:32:06.265Z,801.9231
2023-03-29T17:45:53.497Z,2149.2307
2023-03-29T17:46:54.801Z,2172.0000
2023-03-29T17:47:56.045Z,2214.4614
2023-03-29T17:48:57.204Z,2233.0000
2023-03-29T17:52:32.756Z,2215.9231
2023-03-29T17:53:34.018Z,2194.0000
2023-03-29T17:54:35.231Z,2188.8462
2023-03-29T17:55:36.481Z,2182.7693
2023-03-29T17:56:37.710Z,2177.3845
2023-03-29T17:57:39.424Z,2172.6155
2023-03-29T17:58:40.168Z,2161.5386
2023-03-29T17:59:41.473Z,2124.8462
2023-03-29T18:00:46.195Z,2116.3845
2023-03-29T18:01:48.646Z,2095.7693
2023-03-29T18:02:44.656Z,2055.9167
2023-03-29T18:03:46.132Z,2100.2307
2023-03-29T18:04:47.612Z,2136.9231
2023-03-29T18:05:49.126Z,2070.5386
2023-03-29T18:06:50.654Z,2070.9231
2023-03-29T18:07:52.199Z,2048.0769
2023-03-29T18:08:53.714Z,2009.0000
2023-03-29T18:09:55.236Z,1982.0000
2023-03-29T18:10:56.752Z,1970.3846
2023-03-29T18:11:58.283Z,1960.4615
2023-03-29T18:12:59.953Z,1996.6923
2023-03-29T18:14:01.327Z,2047.4615
2023-03-29T18:15:02.858Z,2095.0769
2023-03-29T18:16:04.560Z,2125.4614
2023-03-29T18:17:05.900Z,2140.1538
2023-03-29T18:18:08.740Z,2380.6155
2023-03-29T18:19:08.917Z,3111.0000
2023-03-29T18:20:10.453Z,2564.0000
2023-03-29T18:21:11.948Z,2344.8462
2023-03-29T18:22:13.463Z,2352.3076
2023-03-29T18:23:14.998Z,2301.2307
2023-03-29T18:24:16.518Z,2227.2307
2023-03-29T18:25:18.033Z,2215.4614
2023-03-29T18:26:19.562Z,2194.2307
2023-03-29T18:27:21.115Z,2142.1538
2023-03-29T18:28:22.653Z,2111.3076
2023-03-29T18:29:24.142Z,2094.1538
2023-03-29T18:30:25.647Z,2075.1538
2023-03-29T18:31:27.278Z,2067.9231
2023-03-29T18:32:28.716Z,2033.5385
2023-03-29T18:33:30.234Z,1971.8462
2023-03-29T18:34:31.733Z,1951.0769
2023-03-29T18:35:33.325Z,1948.0769
2023-03-29T18:36:34.780Z,1976.6923
2023-03-29T18:37:36.328Z,2081.4614
2023-03-29T18:38:41.443Z,2097.4614
2023-03-29T18:39:48.951Z,2217.5386
2023-03-29T18:40:44.203Z,2203.9167
2023-03-29T18:43:17.959Z,2079.0000
2023-03-29T18:44:18.607Z,2061.8462
2023-03-29T18:45:20.171Z,1994.7693
2023-03-29T18:46:22.603Z,1952.1538
2023-03-29T18:47:23.407Z,1920.6923
2023-03-29T18:48:24.686Z,1923.0000
2023-03-29T18:49:26.202Z,1932.4615
2023-03-29T18:50:29.449Z,1940.6923
2023-03-29T18:51:29.222Z,1917.0769
2023-03-29T18:52:32.364Z,1890.6154
2023-03-29T18:53:37.034Z,1874.8572
2023-03-29T18:54:38.549Z,1927.3846
2023-03-29T18:55:40.126Z,1928.1538
2023-03-29T18:56:42.028Z,1999.8462
2023-03-29T18:57:43.099Z,1945.3846
2023-03-29T18:58:44.628Z,1983.1538
2023-03-29T18:59:46.134Z,1938.6154
2023-03-29T19:00:47.632Z,1928.0000
2023-03-29T19:01:53.266Z,1911.3077
2023-03-29T19:02:53.867Z,1916.0769
2023-03-29T19:03:55.774Z,1913.7693
2023-03-29T19:04:56.281Z,1906.3846
2023-03-29T19:05:57.503Z,1910.3077
2023-03-29T19:06:58.741Z,1990.0769
2023-03-29T19:07:59.988Z,2025.9231
2023-03-29T19:09:01.242Z,2019.4615
2023-03-29T19:10:02.486Z,1975.0000
2023-03-29T19:11:03.756Z,1992.9231
2023-03-29T19:12:04.969Z,2061.5386
2023-03-29T19:13:06.241Z,2110.0769
2023-03-29T19:14:07.515Z,2117.4614
2023-03-29T19:15:08.940Z,1999.3846
2023-03-29T19:16:10.536Z,2024.0769
2023-03-29T19:17:11.984Z,1957.8462
2023-03-29T19:18:13.630Z,1991.4615
2023-03-29T19:19:14.999Z,1989.1538
2023-03-29T19:20:16.555Z,2011.0000
2023-03-29T19:21:18.045Z,2020.9231
2023-03-29T19:22:19.590Z,1987.2307
2023-03-29T19:23:21.092Z,1912.8462
2023-03-29T19:24:22.642Z,1873.8462
2023-03-29T19:25:24.130Z,1846.1538
2023-03-29T19:26:25.653Z,1827.6923
2023-03-29T19:27:27.196Z,1797.2307
2023-03-29T19:28:28.716Z,1825.7693
2023-03-29T19:29:30.271Z,1933.3077
2023-03-29T19:30:31.735Z,2040.0769
2023-03-29T19:31:33.324Z,2096.0000
2023-03-29T19:32:34.803Z,2084.3076
2023-03-29T19:33:36.318Z,2069.0769
2023-03-29T19:34:37.828Z,1927.8462
2023-03-29T19:35:39.349Z,1865.9231
2023-03-29T19:36:40.858Z,1828.4615
2023-03-29T19:37:42.376Z,1812.3077
2023-03-29T19:38:44.010Z,1806.9231
2023-03-29T19:39:45.448Z,1818.0769
2023-03-29T19:40:46.958Z,1812.0769
2023-03-29T19:41:48.454Z,1819.7693
2023-03-29T19:42:50.036Z,1829.9231
2023-03-29T19:43:51.563Z,1834.1538
2023-03-29T19:44:53.062Z,1845.9231
2023-03-29T19:45:54.748Z,1848.6154
2023-03-29T19:46:56.150Z,1865.6154
2023-03-29T19:47:57.648Z,1906.6923
2023-03-29T19:48:59.127Z,1957.7693
2023-03-29T19:50:00.664Z,2007.4615
2023-03-29T19:51:02.177Z,1924.0000
2023-03-29T19:52:03.729Z,1892.4615
2023-03-29T19:53:05.218Z,1862.4615
2023-03-29T19:54:06.795Z,1843.6923
2023-03-29T19:55:08.318Z,1887.9231
2023-03-29T19:56:09.809Z,1893.6154
2023-03-29T19:57:11.326Z,1906.3077
2023-03-29T19:58:12.906Z,1911.4615
2023-03-29T19:59:14.360Z,1942.1538
2023-03-29T20:00:15.907Z,1960.3846
2023-03-29T20:01:17.406Z,1953.7693
2023-03-29T20:02:18.937Z,1943.0769
2023-03-29T20:03:20.471Z,1951.4615
2023-03-29T20:04:22.033Z,1973.0769
2023-03-29T20:05:23.509Z,1968.9231
2023-03-29T20:06:25.039Z,1892.7693
2023-03-29T20:07:26.545Z,1943.5385
2023-03-29T20:08:28.075Z,1918.0769
2023-03-29T20:09:29.632Z,1848.0769
2023-03-29T20:10:31.136Z,1803.8462
2023-03-29T20:11:32.637Z,1786.6154
2023-03-29T20:12:34.191Z,1788.0769
2023-03-29T20:13:38.718Z,1778.6923
2023-03-29T20:14:37.217Z,1756.1538
2023-03-29T20:15:38.736Z,1751.9231
2023-03-29T20:16:40.316Z,1759.0769
2023-03-29T20:17:41.801Z,1795.2307
2023-03-29T20:18:43.303Z,1831.3846
2023-03-29T20:19:44.860Z,1851.6154
2023-03-29T20:20:46.362Z,1862.3846
2023-03-29T20:21:47.970Z,1868.6154
2023-03-29T20:22:53.696Z,1958.8462
2023-03-29T20:23:51.104Z,1955.0769
2023-03-29T20:24:52.456Z,1984.1538
2023-03-29T20:25:54.012Z,2000.3846
2023-03-29T20:26:55.495Z,1898.6154
2023-03-29T20:27:57.007Z,1838.2307
2023-03-29T20:28:58.529Z,1840.6923
2023-03-29T20:30:00.061Z,1828.3846
2023-03-29T20:31:01.936Z,1817.0000
2023-03-29T20:32:03.151Z,1790.0769
2023-03-29T20:33:04.712Z,1780.6923
2023-03-29T20:34:06.154Z,1782.3077
2023-03-29T20:35:07.691Z,1780.9231
2023-03-29T20:36:09.349Z,1781.9231
2023-03-29T20:37:10.898Z,1793.0769
2023-03-29T20:38:12.269Z,1818.7693
2023-03-29T20:39:13.908Z,1899.2307
2023-03-29T20:40:15.304Z,1982.6923
2023-03-29T20:41:16.822Z,1983.6923
2023-03-29T20:42:18.804Z,1963.0000
2023-03-29T20:43:19.905Z,1925.5385
2023-03-29T20:44:21.859Z,1887.4615
2023-03-29T20:45:22.917Z,1841.6154
2023-03-29T20:46:24.552Z,1837.7693
2023-03-29T20:47:25.973Z,1860.8462
2023-03-29T20:48:27.491Z,1876.1538
2023-03-29T20:49:29.164Z,1884.1538
2023-03-29T20:50:30.588Z,1900.6923
2023-03-29T20:51:32.185Z,1909.8462
2023-03-29T20:52:33.597Z,1918.0000
2023-03-29T20:53:35.121Z,1919.6154
2023-03-29T20:54:36.715Z,1919.9231
2023-03-29T20:55:38.171Z,1945.6154
2023-03-29T20:56:40.715Z,1989.0769
2023-03-29T20:57:41.203Z,2009.8462
2023-03-29T20:58:42.694Z,2040.8462
2023-03-29T20:59:44.253Z,2101.8462
2023-03-29T21:00:45.761Z,2074.0000
2023-03-29T21:01:47.306Z,2019.6154
2023-03-29T21:02:48.867Z,1983.5385
2023-03-29T21:03:50.387Z,1964.1538
2023-03-29T21:04:51.963Z,1949.6154
2023-03-29T21:05:53.449Z,1949.1538
2023-03-29T21:06:54.914Z,1952.7693
2023-03-29T21:07:56.425Z,1960.0000
2023-03-29T21:08:57.942Z,1972.0000
2023-03-29T21:09:59.465Z,1979.2307
2023-03-29T21:11:01.140Z,1976.3846
2023-03-29T21:12:02.599Z,2006.0000
2023-03-29T21:13:04.041Z,2053.1538
2023-03-29T21:14:05.576Z,2070.0769
2023-03-29T21:15:07.084Z,2119.0769
2023-03-29T21:16:08.662Z,2110.8462
2023-03-29T21:17:10.186Z,2095.3076
2023-03-29T21:18:11.726Z,1994.3846
2023-03-29T21:19:13.169Z,1956.1538
2023-03-29T21:20:14.721Z,1907.5385
2023-03-29T21:21:16.252Z,1902.3077
2023-03-29T21:22:22.608Z,1901.5385
2023-03-29T21:23:26.055Z,1895.3846
2023-03-29T21:24:29.520Z,1882.6923
2023-03-29T21:25:29.615Z,1880.6923
2023-03-29T21:26:30.525Z,1879.7693
2023-03-29T21:27:31.555Z,1878.3077
2023-03-29T21:28:33.153Z,1873.9231
2023-03-29T21:29:35.434Z,1888.7693
2023-03-29T21:30:36.752Z,2055.3076
2023-03-29T21:31:37.276Z,2175.1538
2023-03-29T21:32:37.783Z,2138.0000
2023-03-29T21:33:40.801Z,2098.9231
2023-03-29T21:34:41.452Z,2050.9231
2023-03-29T21:35:42.447Z,1990.3077
2023-03-29T21:36:43.835Z,2000.3846
2023-03-29T21:37:45.334Z,1988.6923
2023-03-29T21:38:46.943Z,1980.6923
2023-03-29T21:39:49.518Z,1975.1538
2023-03-29T21:40:50.022Z,2017.5385
2023-03-29T21:41:51.422Z,2083.0000
2023-03-29T21:42:52.945Z,2121.8462
2023-03-29T21:43:54.475Z,2108.1538
2023-03-29T21:44:56.012Z,2091.6155
2023-03-29T21:45:57.613Z,2062.1538
2023-03-29T21:46:59.133Z,2064.1538
2023-03-29T21:48:00.647Z,2097.4614
2023-03-29T21:49:02.162Z,2132.0000
2023-03-29T21:50:03.652Z,2052.3076
2023-03-29T21:51:05.446Z,2081.4614
2023-03-29T21:52:06.683Z,2081.1538
2023-03-29T21:53:08.693Z,2055.6155
2023-03-29T21:54:10.267Z,2001.8000
2023-03-29T22:06:32.735Z,2007.6364
2023-03-29T22:07:24.827Z,1932.6666
2023-03-29T22:08:26.439Z,1914.3077
2023-03-29T22:09:27.887Z,1903.5385
2023-03-29T22:10:29.432Z,1897.3077
2023-03-29T22:11:31.866Z,1899.5385
2023-03-29T22:12:32.473Z,1903.3846
2023-03-29T22:13:33.981Z,1904.8462
2023-03-29T22:14:36.243Z,1906.8462
2023-03-29T22:15:37.009Z,1915.2307
2023-03-29T22:16:40.956Z,1917.5385
2023-03-29T22:17:41.513Z,1916.0769
2023-03-29T22:18:42.765Z,1912.3077
2023-03-29T22:19:43.946Z,1931.6923
2023-03-29T22:20:45.197Z,1988.8462
2023-03-29T22:21:46.423Z,2009.3846
2023-03-29T22:22:47.808Z,2021.5385
2023-03-29T22:23:49.187Z,2038.0769
2023-03-29T22:24:51.888Z,2052.6924
2023-03-29T22:25:52.237Z,2038.3077
2023-03-29T22:26:53.742Z,2008.6154
2023-03-29T22:27:55.312Z,1977.9231
2023-03-29T22:28:57.378Z,1962.8462
2023-03-29T22:29:58.348Z,1960.3077
2023-03-29T22:31:00.288Z,1966.1538
2023-03-29T22:32:01.474Z,1971.0000
2023-03-29T22:33:02.984Z,1976.2307
2023-03-29T22:34:04.503Z,1978.0000
2023-03-29T22:35:05.942Z,1961.0769
2023-03-29T22:36:07.457Z,1962.4615
2023-03-29T22:37:08.978Z,1953.3846
2023-03-29T22:38:10.503Z,1988.4615
2023-03-29T22:39:12.038Z,2037.1538
2023-03-29T22:40:13.558Z,2072.4614
2023-03-29T22:41:15.071Z,2051.6924
2023-03-29T22:42:16.609Z,1993.3846
2023-03-29T22:43:18.140Z,1983.3846
2023-03-29T22:44:19.640Z,1954.5385
2023-03-29T22:45:21.206Z,1950.4615
2023-03-29T22:46:22.777Z,1937.3077
2023-03-29T22:47:24.240Z,1930.1538
2023-03-29T22:48:25.709Z,1932.3077
2023-03-29T22:49:27.257Z,1938.7693
2023-03-29T22:50:28.769Z,1944.3077
2023-03-29T22:51:30.301Z,1940.1538
2023-03-29T22:52:31.852Z,1945.4615
2023-03-29T22:53:33.376Z,1944.4615
2023-03-29T22:54:34.864Z,1956.3846
2023-03-29T22:55:36.375Z,2006.3846
2023-03-29T22:56:37.997Z,2083.0000
2023-03-29T22:57:39.472Z,2103.1538
2023-03-29T22:58:40.988Z,2085.8462
2023-03-29T22:59:42.493Z,2039.8462
2023-03-29T23:00:44.019Z,2009.3846
2023-03-29T23:01:45.514Z,1955.3077
2023-03-29T23:02:47.031Z,1936.4615
2023-03-29T23:03:48.595Z,1936.1538
2023-03-29T23:04:50.222Z,1937.1538
2023-03-29T23:05:51.587Z,1923.1538
2023-03-29T23:06:53.193Z,1903.6923
2023-03-29T23:07:54.624Z,1903.8462
2023-03-29T23:08:56.170Z,1902.6154
2023-03-29T23:09:57.723Z,1888.6154
2023-03-29T23:10:59.188Z,1892.1538
2023-03-29T23:12:00.854Z,1921.2307
2023-03-29T23:13:02.224Z,1957.1538
2023-03-29T23:14:03.744Z,1984.8462
2023-03-29T23:15:05.304Z,2014.0769
2023-03-29T23:16:06.889Z,2008.9231
2023-03-29T23:17:08.307Z,1896.4615
2023-03-29T23:18:09.852Z,1848.6154
2023-03-29T23:19:11.347Z,1829.0000
2023-03-29T23:20:12.938Z,1822.2307
2023-03-29T23:21:14.397Z,1819.3077
2023-03-29T23:22:15.951Z,1808.2307
2023-03-29T23:23:17.438Z,1795.6923
2023-03-29T23:24:19.323Z,1774.1538
2023-03-29T23:25:20.490Z,1774.5385
2023-03-29T23:26:22.003Z,1780.0000
2023-03-29T23:27:23.576Z,1782.3077
2023-03-29T23:28:25.069Z,1783.2307
2023-03-29T23:29:26.567Z,1821.1538
2023-03-29T23:30:28.108Z,1882.6154
2023-03-29T23:31:29.657Z,1879.6154
2023-03-29T23:32:31.165Z,1890.9231
2023-03-29T23:33:32.689Z,1884.3077
2023-03-29T23:34:34.185Z,1837.1538
2023-03-29T23:35:35.773Z,1781.3846
2023-03-29T23:36:37.233Z,1773.9231
2023-03-29T23:37:38.799Z,1775.5385
2023-03-29T23:38:40.262Z,1775.3077
2023-03-29T23:39:41.826Z,1780.0000
2023-03-29T23:40:43.316Z,1784.9231
2023-03-29T23:41:44.915Z,1785.1538
2023-03-29T23:42:46.384Z,1781.6923
2023-03-29T23:43:47.913Z,1779.5385
2023-03-29T23:44:49.402Z,1777.8462
2023-03-29T23:45:51.083Z,1795.3077
2023-03-29T23:46:52.541Z,1806.1538
2023-03-29T23:47:54.025Z,1823.9231
2023-03-29T23:48:55.554Z,1920.7693
2023-03-29T23:49:57.016Z,1854.2307
2023-03-29T23:50:59.616Z,1850.2307
2023-03-29T23:52:00.077Z,1797.6923
2023-03-29T23:53:01.560Z,1759.0769
2023-03-29T23:54:03.120Z,1750.2307
2023-03-29T23:55:04.595Z,1743.4615
2023-03-29T23:56:06.139Z,1735.9231
2023-03-29T23:57:07.757Z,1732.0000
2023-03-29T23:58:09.156Z,1733.3077
2023-03-29T23:59:10.741Z,1733.6923
